Flugplatz Braunschweig Wolfsburg

Bericht für EDVE

vom 16.01. um 10:20 UTC

Wind 13 kt aus 250°

Sichtweite 9000 m

bedeckt in 1100 ft

Temperatur 3.0°C

Taupunkt 1.0°C

Luftfeuchtigkeit 87%

Luftdruck 1020 hPa

EDVE 161020Z 25013KT 9000 OVC011 03/01 Q1020

Prognose für EDVE

vom 16.01. um 08:00 UTC

Zwischen 09:00 UTC und 18:00 UTC

Wind 10 kt aus 250°

Sichtweite 9000 m

bedeckt in 800 ft


Zwischen 09:00 UTC und 14:00 UTC zeitweise mit einer Wahrscheinlichkeit von 30%

Sichtweite 4000 m

schwacher Sprühregen

schwacher Regen

aufgebrochene Bewölkung in 400 ft

TAF EDVE 160800Z 1609/1618 25010KT 9000 OVC008 PROB30 TEMPO 1609/1614 4000 -DZRA BKN004
Impressum